Flight Track Log - Related Links

Times and Time Zones

All times are in EST time to prevent confusion due to time zone crossing. See the SWA3034 flight status page for this flight to view local times or setup timezone preferences in your user account.

Time Position Orientation Groundspeed Altitude Reporting Facility
EST Latitude Longitude Course Direction KTS MPH feet Rate Location/Type
Sat 07:38:34 PM 36.1086 -115.1494 107° East 151 174 3,300  Level Los Angeles Center
Sat 07:40:10 PM 36.1344 -115.0581 71° East 226 260 6,200 2,522 Climbing Los Angeles Center
Sat 07:41:11 PM 36.1447 -114.9686 82° East 263 303 9,900 3,024 Climbing Los Angeles Center
Sat 07:42:13 PM 36.1214 -114.8650 106° East 316 364 12,400 2,488 Climbing Los Angeles Center
Sat 07:43:14 PM 36.0942 -114.7750 110° East 343 395 15,000 2,732 Climbing Los Angeles Center
Sat 07:44:00 PM 35.8656 -114.3171 107° East  Level Estimated
Sat 07:44:16 PM 36.0517 -114.6342 110° East 363 418 18,000  Level Los Angeles Center
Sat 07:45:17 PM 36.0131 -114.5072 111° Southeast 390 449 20,700 2,585 Climbing Los Angeles Center
Sat 07:46:19 PM 35.9928 -114.3733 101° East 398 458 23,300 2,293 Climbing Los Angeles Center
Sat 07:47:20 PM 35.9719 -114.2336 100° East 411 473 25,400 1,951 Climbing Los Angeles Center
Sat 07:48:22 PM 35.9508 -114.0872 100° East 429 494 27,300 1,951 Climbing Los Angeles Center
Sat 07:49:23 PM 35.9236 -113.9039 100° East 450 518 29,400 1,805 Climbing Los Angeles Center
Sat 07:50:25 PM 35.8547 -113.7697 122° Southeast 481 554 31,000 1,659 Climbing Los Angeles Center
Sat 07:51:26 PM 35.7731 -113.6394 128° Southeast 478 550 32,800 1,707 Climbing Los Angeles Center
Sat 07:52:28 PM 35.7486 -113.4778 101° East 459 528 34,500 1,756 Climbing Los Angeles Center
Sat 07:53:29 PM 35.7264 -113.3244 100° East 456 525 36,400 1,659 Climbing Los Angeles Center
Sat 07:54:31 PM 35.7047 -113.1750 100° East 445 512 37,900 1,171 Climbing Los Angeles Center
Sat 07:55:32 PM 35.6831 -113.0331 101° East 442 509 38,800 493 Climbing Los Angeles Center
Sat 07:56:45 PM 35.6608 -112.8750 100° East 442 509 39,000 89 Climbing Los Angeles Center
Sat 07:57:47 PM 35.6339 -112.6889 100° East 459 528 39,000  Level Los Angeles Center
Sat 07:58:49 PM 35.6103 -112.5319 100° East 461 531 39,000  Level Los Angeles Center
Sat 07:59:50 PM 35.5692 -112.3844 109° East 455 524 39,000  Level Los Angeles Center
Sat 08:00:51 PM 35.5231 -112.2367 111° Southeast 462 532 39,000  Level Los Angeles Center
Sat 08:01:33 PM 35.4850 -112.1194 112° Southeast 465 535 39,000  Level Albuquerque Center
Sat 08:02:34 PM 35.4389 -111.9714 111° Southeast 465 535 39,000  Level Albuquerque Center
Sat 08:03:35 PM 35.3922 -111.8219 111° Southeast 468 539 39,000  Level Albuquerque Center
Sat 08:04:36 PM 35.3439 -111.6731 112° Southeast 471 542 39,000  Level Albuquerque Center
Sat 08:05:37 PM 35.2994 -111.5294 111° Southeast 475 547 39,000  Level Albuquerque Center
Sat 08:06:38 PM 35.2508 -111.3792 112° Southeast 475 547 39,000  Level Albuquerque Center
Sat 08:07:39 PM 35.1939 -111.1983 111° Southeast 475 547 39,000  Level Albuquerque Center
Sat 08:08:40 PM 35.1486 -111.0561 111° Southeast 476 548 39,000  Level Albuquerque Center
Sat 08:09:41 PM 35.0931 -110.8867 112° Southeast 479 551 39,000  Level Albuquerque Center
Sat 08:10:43 PM 35.0472 -110.7444 111° Southeast 476 548 39,000  Level Albuquerque Center
Sat 08:11:44 PM 35.0019 -110.6025 111° Southeast 473 544 39,000  Level Albuquerque Center
Sat 08:12:45 PM 34.9475 -110.4381 112° Southeast 470 541 39,000  Level Albuquerque Center
Sat 08:13:46 PM 34.9031 -110.2972 111° Southeast 468 539 39,000  Level Albuquerque Center
Sat 08:14:47 PM 34.8561 -110.1556 112° Southeast 470 541 39,000  Level Albuquerque Center
Sat 08:15:48 PM 34.7975 -109.9883 113° Southeast 476 548 39,000  Level Albuquerque Center
Sat 08:16:49 PM 34.7514 -109.8472 112° Southeast 473 544 39,000  Level Albuquerque Center
Sat 08:17:50 PM 34.6961 -109.6836 112° Southeast 471 542 39,000  Level Albuquerque Center
Sat 08:18:51 PM 34.6492 -109.5439 112° Southeast 468 539 39,000  Level Albuquerque Center
Sat 08:19:52 PM 34.6019 -109.4067 113° Southeast 465 535 39,000  Level Albuquerque Center
Sat 08:20:54 PM 34.5467 -109.2453 113° Southeast 464 534 39,000  Level Albuquerque Center
Sat 08:21:55 PM 34.4994 -109.1078 113° Southeast 463 533 39,000  Level Albuquerque Center
Sat 08:22:56 PM 34.4444 -108.9469 112° Southeast 463 533 39,000  Level Albuquerque Center
Sat 08:23:57 PM 34.3958 -108.8103 113° Southeast 463 533 39,000  Level Albuquerque Center
Sat 08:24:58 PM 34.3472 -108.6706 113° Southeast 467 537 39,000  Level Albuquerque Center
Sat 08:25:59 PM 34.2911 -108.5103 113° Southeast 470 541 39,000  Level Albuquerque Center
Sat 08:27:00 PM 34.2461 -108.3831 113° Southeast 474 545 39,000  Level Albuquerque Center
Sat 08:28:02 PM 34.1961 -108.2364 112° Southeast 473 544 39,000  Level Albuquerque Center
Sat 08:29:03 PM 34.1300 -108.0575 114° Southeast 484 557 39,000  Level Albuquerque Center
Sat 08:30:04 PM 34.0783 -107.9108 113° Southeast 481 554 39,000 49 Level Albuquerque Center
Sat 08:31:05 PM 34.0264 -107.7656 113° Southeast 476 548 39,100 492 Climbing Albuquerque Center
Sat 08:32:06 PM 33.9731 -107.6206 114° Southeast 475 547 40,000 443 Climbing Albuquerque Center
Sat 08:33:07 PM 33.9211 -107.4761 113° Southeast 474 545 40,000  Level Albuquerque Center
Sat 08:34:08 PM 33.8686 -107.3319 114° Southeast 472 543 40,000  Level Albuquerque Center
Sat 08:35:09 PM 33.8086 -107.1667 114° Southeast 475 547 40,000  Level Albuquerque Center
Sat 08:36:11 PM 33.7550 -107.0225 114° Southeast 474 545 40,000  Level Albuquerque Center
Sat 08:37:12 PM 33.7008 -106.8778 114° Southeast 474 545 40,000  Level Albuquerque Center
Sat 08:38:13 PM 33.6475 -106.7308 114° Southeast 476 548 40,000  Level Albuquerque Center
Sat 08:39:14 PM 33.5922 -106.5833 114° Southeast 479 551 40,000  Level Albuquerque Center
Sat 08:40:15 PM 33.5353 -106.4300 114° Southeast 481 554 40,000  Level Albuquerque Center
Sat 08:41:16 PM 33.4825 -106.2881 114° Southeast 484 557 40,000  Level Albuquerque Center
Sat 08:42:17 PM 33.4278 -106.1403 114° Southeast 484 557 40,000  Level Albuquerque Center
Sat 08:43:18 PM 33.3708 -105.9906 114° Southeast 490 564 40,000  Level Albuquerque Center
Sat 08:44:20 PM 33.3133 -105.8406 115° Southeast 493 567 40,000  Level Albuquerque Center
Sat 08:45:21 PM 33.2564 -105.6894 114° Southeast 496 571 40,000  Level Albuquerque Center
Sat 08:46:22 PM 33.1856 -105.5061 115° Southeast 508 585 40,000  Level Albuquerque Center
Sat 08:47:23 PM 33.1264 -105.3542 115° Southeast 508 585 40,000  Level Albuquerque Center
Sat 08:48:24 PM 33.0692 -105.2022 114° Southeast 506 582 40,000  Level Albuquerque Center
Sat 08:49:25 PM 33.0092 -105.0508 115° Southeast 507 583 40,000  Level Albuquerque Center
Sat 08:50:26 PM 32.9467 -104.8889 115° Southeast 504 580 40,000  Level Albuquerque Center
Sat 08:51:27 PM 32.8883 -104.7386 115° Southeast 504 580 40,000  Level Albuquerque Center
Sat 08:52:28 PM 32.8292 -104.5894 115° Southeast 502 578 40,000  Level Albuquerque Center
Sat 08:53:29 PM 32.7708 -104.4389 115° Southeast 504 580 40,000 -836 Level Albuquerque Center
Sat 08:54:30 PM 32.7075 -104.2797 115° Southeast 501 577 38,300 -2,066 Descending Albuquerque Center
Sat 08:55:31 PM 32.6481 -104.1317 115° Southeast 500 575 35,800 -2,656 Descending Albuquerque Center
Sat 08:56:32 PM 32.5933 -103.9931 115° Southeast 499 574 32,900 -2,705 Descending Albuquerque Center
Sat 08:57:33 PM 32.5344 -103.8467 115° Southeast 495 570 30,300 -2,390 Descending Albuquerque Center
Sat 08:58:35 PM 32.4756 -103.7022 116° Southeast 492 566 28,000 -2,049 Descending Albuquerque Center
Sat 08:59:36 PM 32.4197 -103.5686 116° Southeast 466 536 26,100 -1,967 Descending Albuquerque Center
Sat 09:00:37 PM 32.3683 -103.4406 115° Southeast 443 510 24,000 -2,118 Descending Albuquerque Center
Sat 09:02:09 PM 32.2875 -103.2450 116° Southeast 416 479 20,700 -2,039 Descending Fort Worth Center
Sat 09:03:10 PM 32.2406 -103.1283 115° Southeast 402 463 18,800 -1,756 Descending Fort Worth Center
Sat 09:04:12 PM 32.1928 -103.0164 117° Southeast 390 449 17,100 -2,049 Descending Fort Worth Center
Sat 09:05:13 PM 32.1353 -102.8864 118° Southeast 379 436 14,600 -2,164 Descending Fort Worth Center
Sat 09:06:14 PM 32.0789 -102.7972 127° Southeast 376 433 12,700 -1,918 Descending Fort Worth Center
Sat 09:07:15 PM 32.0181 -102.7058 128° Southeast 361 415 10,700 -1,475 Descending Fort Worth Center
Sat 09:08:16 PM 31.9633 -102.6181 126° Southeast 342 394 9,700 -1,082 Descending Fort Worth Center
Sat 09:09:17 PM 31.9317 -102.5356 114° Southeast 289 333 8,500 -1,230 Descending Fort Worth Center
Sat 09:10:18 PM 31.8981 -102.4314 111° Southeast 282 325 7,200 -984 Descending Fort Worth Center
Sat 09:11:19 PM 31.8675 -102.3539 115° Southeast 271 312 6,500 -541 Descending Fort Worth Center
Sat 09:12:20 PM 31.8414 -102.2900 116° Southeast 231 266 6,100 -537 Descending Fort Worth Center
Sat 09:13:22 PM 31.8275 -102.2333 106° East 190 219 5,400 -780 Descending Fort Worth Center
Sat 09:14:23 PM 31.8486 -102.1931 58° Northeast 160 184 4,500 -787 Descending Fort Worth Center
Sat 09:15:24 PM 31.8858 -102.1989 352° North 145 167 3,800 -738 Descending Fort Worth Center
Sat 09:16:25 PM 31.9236 -102.2028 355° North 138 159 3,000 -443 Descending Fort Worth Center
Sat 09:17:26 PM 31.9508 -102.2061 354° North 113 130 2,900 -49 Descending Fort Worth Center
Sat 09:18:27 PM 31.9531 -102.2072 337° Northwest 70 81 2,900  Level Fort Worth Center

Login

Don't have an account? Register now (free) for customized features, flight alerts, and more!